Latest Coastal Weather Observations for Whyalla

IDS60701

Issued at 11:01 pm CST Sunday 14 April 2024 (issued every 10 minutes, with the page automatically refreshed every 10 minutes)

About coastal observations | Map of coastal stations | Coastal observations for SA | Marine services | Other Formats
Station Details ID: 018120 Name: WHYALLA AERO Lat: -33.05 Lon: 137.52 Height: 9.3 m
Data from the previous 72 hours. | See also: Recent months at Whyalla
Date/Time
CST
Wind Sea
Height
m
Swell Vis
km
Cloud Weather Temp
°C
Press
MSL
hPa
Rain since
9am
mm
Dir  Spd
kts
Gust
kts
Height
m
Period
s
Dir
14/11:00pm SW 4 5 - - - - 10 Clear - 14.0 1023.8 0.0
14/10:30pm SW 5 5 - - - - 10 - - 14.3 1023.9 0.0
14/10:00pm SW 5 5 - - - - 10 - - 14.7 1023.8 0.0
14/09:30pm SW 5 7 - - - - 10 - - 15.3 1023.7 0.0
14/09:00pm SW 7 7 - - - - 10 Mostly clear - 15.7 1023.7 0.0
14/08:30pm SW 6 7 - - - - 10 - - 15.9 1023.6 0.0
14/08:00pm S 6 7 - - - - 10 - - 16.2 1023.4 0.0
14/07:30pm SSE 6 6 - - - - 10 - - 16.9 1023.1 0.0
14/07:00pm SSE 6 9 - - - - 10 - - 17.8 1022.8 0.0
14/06:30pm SSE 7 9 - - - - 10 - - 18.3 1022.4 0.0
14/06:00pm SSE 8 12 - - - - 10 Mostly clear - 18.8 1022.2 0.0
14/05:30pm SSE 10 13 - - - - 10 - - 19.2 1021.9 0.0
14/05:00pm SE 10 14 - - - - 10 - - 20.3 1021.7 0.0
14/04:30pm SE 10 13 - - - - 10 - - 21.2 1021.3 0.0
14/04:00pm SE 10 14 - - - - 10 - - 21.1 1021.1 0.0
14/03:30pm SE 11 16 - - - - 10 - - 21.6 1021.3 0.0
14/03:00pm SE 11 13 - - - - 10 - - 22.0 1021.2 0.0
14/02:30pm ESE 10 13 - - - - 10 - - 22.1 1021.1 0.0
14/02:00pm ESE 10 12 - - - - 10 - - 21.8 1021.3 0.0
14/01:30pm ESE 9 12 - - - - 10 - - 21.4 1021.6 0.0
14/01:00pm ESE 9 11 - - - - 10 - - 20.9 1022.0 0.0
14/12:30pm SE 8 10 - - - - 10 - - 21.1 1022.4 0.0
14/12:00pm SE 6 9 - - - - 10 - - 21.1 1022.8 0.0
14/11:30am ESE 7 9 - - - - 10 - - 20.7 1023.2 0.0
14/11:00am SE 5 7 - - - - 10 - - 20.3 1023.5 0.0
14/10:30am SSE 5 9 - - - - 10 - - 19.1 1023.7 0.0
14/10:00am SSE 4 6 - - - - 10 - - 18.7 1023.8 0.0
14/09:30am SSE 5 9 - - - - 10 - - 18.3 1023.8 0.0
14/09:00am S 5 7 - - - - 10 - - 17.7 1023.9 0.0
14/08:30am SW 4 6 - - - - 10 - - 15.1 1023.7 0.0
14/08:00am WNW 5 6 - - - - 10 - - 12.0 1023.6 0.0
14/07:30am NW 6 7 - - - - 10 - - 9.6 1023.3 0.0
14/07:00am NW 5 6 - - - - 10 - - 8.4 1022.9 0.0
14/06:30am WNW 6 7 - - - - 10 - - 8.6 1022.7 0.0
14/06:00am WNW 6 7 - - - - 10 Cloudy - 8.3 1022.5 0.0
14/05:30am WNW 4 5 - - - - 10 - - 8.5 1022.2 0.0
14/05:00am WNW 4 5 - - - - 10 - - 8.6 1022.2 0.0
14/04:30am W 5 6 - - - - 10 - - 8.0 1022.0 0.0
14/04:00am W 4 5 - - - - 10 - - 9.3 1022.0 0.0
14/03:30am WSW 4 5 - - - - 10 - - 9.7 1022.0 0.0
14/03:00am WSW 5 6 - - - - 10 - - 10.2 1022.1 0.0
14/02:30am WSW 5 7 - - - - 10 - - 10.1 1022.3 0.0
14/02:00am WSW 4 5 - - - - 10 - - 10.6 1022.6 0.0
14/01:30am WSW 7 9 - - - - 10 - - 10.9 1022.7 0.0
14/01:00am W 5 6 - - - - 10 - - 9.9 1022.8 0.0
14/12:30am W 4 5 - - - - 10 - - 10.0 1022.9 0.0
14/12:00am W 4 5 - - - - 10 - - 10.4 1022.7 0.0
 
Date/Time
CST
Wind Sea
Height
m
Swell Vis
km
Cloud Weather Temp
°C
Press
MSL
hPa
Rain since
9am
mm
Dir  Spd
kts
Gust
kts
Height
m
Period
s
Dir
13/11:30pm W 4 5 - - - - 10 - - 11.4 1022.8 0.0
13/11:00pm SE 6 7 - - - - 10 - - 14.7 1022.9 0.0
13/10:30pm SE 5 8 - - - - 10 - - 14.3 1023.3 0.0
13/10:00pm SSW 7 9 - - - - 10 - - 14.7 1023.7 0.0
13/09:30pm SSW 7 9 - - - - 10 - - 14.6 1023.8 0.0
13/09:00pm SSW 8 10 - - - - 10 - - 14.9 1023.9 0.0
13/08:30pm SSW 8 12 - - - - 10 - - 15.3 1023.6 0.0
13/08:00pm SSW 9 11 - - - - 10 - - 15.7 1023.4 0.0
13/07:30pm S 10 13 - - - - 10 - - 16.3 1023.3 0.0
13/07:00pm S 9 12 - - - - 10 - - 16.4 1023.0 0.0
13/06:30pm S 9 12 - - - - 10 - - 16.6 1022.7 0.0
13/06:00pm S 10 13 - - - - 10 - - 17.0 1022.5 0.0
13/05:30pm S 12 15 - - - - 10 - - 17.8 1022.3 0.0
13/05:00pm SSE 12 16 - - - - 10 - - 18.2 1021.9 0.0
13/04:30pm S 11 15 - - - - 10 - - 18.6 1021.9 0.0
13/04:00pm SSE 10 15 - - - - 10 - - 19.2 1021.8 0.0
13/03:30pm SSE 11 14 - - - - 10 - - 19.0 1021.8 0.0
13/03:00pm SSE 11 14 - - - - 10 - - 19.2 1022.0 0.0
13/02:30pm SSE 11 15 - - - - 10 - - 19.2 1022.3 0.0
13/02:00pm SSE 11 16 - - - - 10 - - 18.9 1022.5 0.0
13/01:30pm SSE 11 15 - - - - 10 - - 19.0 1023.0 0.0
13/01:00pm SSE 11 13 - - - - 10 - - 19.0 1023.5 0.0
13/12:30pm SSE 10 16 - - - - 10 - - 18.9 1023.9 0.0
13/12:00pm S 11 17 - - - - 10 - - 18.2 1024.5 0.0
13/11:30am SE 10 14 - - - - 10 - - 18.1 1024.7 0.0
13/11:00am SSE 10 13 - - - - 10 - - 17.9 1025.1 0.0
13/10:30am SE 10 12 - - - - 10 - - 17.6 1025.1 0.0
13/10:00am SE 9 14 - - - - 10 - - 17.3 1025.3 0.0
13/09:30am SE 9 12 - - - - 10 - - 17.1 1025.4 0.0
13/09:00am SE 9 12 - - - - 10 - - 16.7 1025.3 0.0
13/08:30am SE 8 11 - - - - 10 - - 16.2 1025.1 0.0
13/08:00am SE 9 11 - - - - 10 - - 15.6 1024.9 0.0
13/07:54am SE 8 11 - - - - 10 - - 15.5 1024.8 0.0
13/07:30am SE 3 5 - - - - 10 - - 10.5 1024.7 0.0
13/07:00am SSE 3 4 - - - - 10 - - 8.1 1024.5 0.0
13/06:30am CALM 0 2 - - - - 10 - - 7.5 1024.3 0.0
13/06:27am ESE 1 3 - - - - 10 - - 7.7 1024.3 0.0
13/06:00am ESE 5 6 - - - - 10 - - 12.7 1024.2 0.0
13/05:30am ESE 6 8 - - - - 10 - - 13.5 1024.1 0.0
13/05:00am ESE 7 9 - - - - 10 Partly cloudy - 14.1 1023.6 0.0
13/04:30am SE 7 9 - - - - 10 Partly cloudy - 14.1 1023.4 0.0
13/04:00am SE 6 8 - - - - 10 Partly cloudy - 13.5 1023.5 0.0
13/03:30am SE 6 7 - - - - 10 Partly cloudy - 13.3 1023.6 0.0
13/03:00am SE 6 7 - - - - 10 - - 13.2 1023.8 0.0
13/02:30am ESE 5 7 - - - - 10 - - 13.6 1024.0 0.0
13/02:00am SE 7 10 - - - - 10 - - 14.3 1024.2 0.0
13/01:30am SE 8 12 - - - - 10 - - 14.8 1023.9 0.0
13/01:00am SE 7 10 - - - - 10 - - 14.9 1023.9 0.0
13/12:30am SE 7 10 - - - - 10 - - 15.1 1024.2 0.0
13/12:00am SE 8 11 - - - - 10 - - 15.4 1024.2 0.0
 
Date/Time
CST
Wind Sea
Height
m
Swell Vis
km
Cloud Weather Temp
°C
Press
MSL
hPa
Rain since
9am
mm
Dir  Spd
kts
Gust
kts
Height
m
Period
s
Dir
12/11:30pm SE 9 11 - - - - 10 - - 15.5 1024.2 0.0
12/11:00pm SE 8 12 - - - - 10 - - 15.7 1024.1 0.0
12/10:30pm SE 8 10 - - - - 10 - - 15.8 1024.1 0.0
12/10:00pm SE 10 15 - - - - 10 - - 16.3 1024.2 0.0
12/09:30pm SE 11 15 - - - - 10 - - 16.5 1024.2 0.0
12/09:00pm SSE 11 16 - - - - 10 - - 16.6 1023.9 0.0
12/08:30pm SSE 12 17 - - - - 10 - - 16.5 1023.6 0.0
12/08:00pm S 13 17 - - - - 10 - - 16.6 1023.7 0.0
12/07:30pm S 13 18 - - - - 10 - - 16.6 1023.5 0.0
12/07:00pm S 13 18 - - - - 10 - - 16.7 1023.3 0.0
12/06:30pm S 13 18 - - - - 10 - - 16.9 1023.0 0.0
12/06:00pm S 12 16 - - - - 10 - - 17.4 1022.6 0.0
12/05:30pm S 13 17 - - - - 10 - - 18.2 1022.4 0.0
12/05:00pm S 11 15 - - - - 10 - - 18.6 1022.3 0.0
12/04:30pm S 12 15 - - - - 10 - - 18.7 1022.2 0.0
12/04:00pm S 11 16 - - - - 10 - - 19.4 1022.4 0.0
12/03:30pm SSE 11 15 - - - - 10 - - 19.4 1022.3 0.0
12/03:00pm SSE 13 19 - - - - 10 - - 18.9 1022.4 0.0
12/02:30pm SSE 13 17 - - - - 10 - - 18.8 1022.5 0.0
12/02:00pm SSE 15 22 - - - - 10 - - 19.5 1022.8 0.0
12/01:30pm SE 14 19 - - - - 10 - - 18.8 1023.1 0.0
12/01:00pm SE 12 17 - - - - 10 - - 18.9 1023.5 0.0
12/12:30pm SE 12 18 - - - - 10 - - 18.3 1024.0 0.0
12/12:00pm SE 11 15 - - - - 10 - - 18.1 1024.6 0.0
12/11:30am SE 10 13 - - - - 10 - - 17.7 1024.9 0.0
12/11:00am SE 10 14 - - - - 10 - - 17.6 1025.3 0.0
12/10:30am ESE 11 16 - - - - 10 - - 17.6 1025.3 0.0
12/10:00am SE 10 14 - - - - 10 - - 17.9 1025.6 0.0
12/09:30am ESE 11 15 - - - - 10 - - 17.6 1025.6 0.0
12/09:00am SE 11 15 - - - - 10 - - 17.0 1025.7 0.0
12/08:30am SE 10 13 - - - - 10 - - 16.9 1025.4 0.0
12/08:00am ESE 5 11 - - - - 10 - - 15.9 1025.0 0.0
12/07:59am ESE 4 11 - - - - 10 - - 15.8 1025.0 0.0
12/07:30am NNW 3 5 - - - - 10 - - 10.8 1024.7 0.0
12/07:00am SW 3 3 - - - - 10 - - 9.5 1024.5 0.0
12/06:30am SW 4 6 - - - - 10 - - 10.3 1024.4 0.0
12/06:00am WSW 5 7 - - - - 10 - - 10.5 1024.3 0.0
12/05:30am W 5 6 - - - - 10 - - 9.7 1024.1 0.0
12/05:00am WNW 3 4 - - - - 10 Partly cloudy - 10.5 1023.9 0.0
12/04:30am NW 4 5 - - - - 10 Partly cloudy - 11.0 1023.6 0.0
12/04:00am NW 5 6 - - - - 10 Partly cloudy - 10.9 1023.3 0.0
12/03:30am SE 4 7 - - - - 10 - - 12.3 1023.2 0.0
12/03:00am SE 6 9 - - - - 10 - - 15.2 1023.1 0.0
12/02:30am SE 6 9 - - - - 10 Partly cloudy - 15.7 1023.4 0.0
12/02:00am SE 8 12 - - - - 10 Partly cloudy - 16.0 1023.7 0.0
12/01:30am SE 6 9 - - - - 10 Partly cloudy - 15.6 1024.1 0.0
12/01:00am SE 7 10 - - - - 10 - - 15.5 1024.2 0.0
12/12:30am SE 8 11 - - - - 10 - - 15.8 1024.2 0.0
12/12:00am SE 8 12 - - - - 10 - - 15.7 1024.3 0.0
 
Date/Time
CST
Wind Sea
Height
m
Swell Vis
km
Cloud Weather Temp
°C
Press
MSL
hPa
Rain since
9am
mm
Dir  Spd
kts
Gust
kts
Height
m
Period
s
Dir
11/11:30pm SE 8 11 - - - - 10 - - 15.8 1024.3 0.0

Other formats

Comma delimited format used in spreadsheet applications
http://www.bom.gov.au/fwo/IDS60701/IDS60701.95664.axf

JavaScript Object Notation format (JSON) in row-major order
http://www.bom.gov.au/fwo/IDS60701/IDS60701.95664.json

Data quality

Most of these data are generated automatically and are frequently updated. Quality checks on data are not normally performed. It is possible for incorrect values to appear. Refer to information at About Latest Weather Observations and please check the disclaimer before using these data.